.
WxDataArchive / Data Records for 2014-05-16
2014-05-15 May 2014 2014-05-17

Data Records for Friday, 16 May 2014

Time	Temp	Chill	HIndex	Humid	Dewpt	 Wind 	HiWind	WindDir	Rain 	Barom
-----	----	-----	------	-----	-----	------	------	-------	-----	-----
00:00	38.2	38.2	38.2	86	34.4	0	0	---	0.00	30.031 
00:05	38.2	38.2	38.2	87	34.7	0	0	---	0.00	30.031 
00:10	38.0	38.0	38.0	87	34.5	0	0	---	0.00	30.031 
00:15	38.0	38.0	38.0	87	34.5	0	0	---	0.00	30.031 
00:20	38.0	38.0	38.0	87	34.5	0	0	---	0.00	30.031 
00:25	37.9	37.9	37.9	87	34.4	0	0	---	0.00	30.031 
00:30	37.9	37.9	37.9	87	34.4	0	0	---	0.00	30.031 
00:35	37.8	37.8	37.8	87	34.3	0	0	---	0.00	30.031 
00:40	37.6	37.6	37.6	88	34.4	0	0	---	0.00	30.031 
00:45	37.6	37.6	37.6	88	34.4	0	0	---	0.00	30.030 
00:50	37.5	37.5	37.5	88	34.3	0	0	---	0.00	30.030 
00:55	37.3	37.3	37.3	88	34.1	0	0	---	0.00	30.030 
01:00	37.2	37.2	37.2	88	34.0	0	0	---	0.00	30.027 
01:05	37.3	37.3	37.3	88	34.1	0	0	---	0.00	30.027 
01:10	37.2	37.2	37.2	89	34.3	0	0	---	0.00	30.027 
01:15	37.0	37.0	37.0	89	34.1	0	0	---	0.00	30.022 
01:20	37.0	37.0	37.0	89	34.1	0	0	---	0.00	30.022 
01:25	36.9	36.9	36.9	89	34.0	0	0	---	0.00	30.022 
01:30	36.8	36.8	36.8	89	33.9	0	0	---	0.00	30.019 
01:35	36.6	36.6	36.6	89	33.7	0	0	---	0.00	30.019 
01:40	36.5	36.5	36.5	89	33.6	0	0	---	0.00	30.019 
01:45	36.5	36.5	36.5	89	33.6	0	0	---	0.00	30.019 
01:50	36.3	36.3	36.3	89	33.4	0	0	---	0.00	30.019 
01:55	36.2	36.2	36.2	90	33.6	0	0	---	0.00	30.019 
02:00	36.0	36.0	36.0	90	33.4	0	0	---	0.00	30.018 
02:05	35.9	35.9	35.9	90	33.3	0	0	---	0.00	30.018 
02:10	35.8	35.8	35.8	90	33.2	0	0	---	0.00	30.018 
02:15	35.8	35.8	35.8	90	33.2	0	0	---	0.00	30.017 
02:20	35.6	35.6	35.6	90	33.0	0	0	---	0.00	30.017 
02:25	35.5	35.5	35.5	91	33.1	0	0	---	0.00	30.017 
02:30	35.5	35.5	35.5	91	33.1	0	0	---	0.00	30.013 
02:35	35.3	35.3	35.3	91	32.9	0	0	---	0.00	30.013 
02:40	35.3	35.3	35.3	91	32.9	0	0	---	0.00	30.013 
02:45	35.3	35.3	35.3	91	32.9	0	0	---	0.00	30.007 
02:50	35.2	35.2	35.2	91	32.8	0	0	---	0.00	30.007 
02:55	35.2	35.2	35.2	91	32.8	0	0	---	0.00	30.007 
03:00	35.0	35.0	35.0	91	32.6	0	0	---	0.00	30.005 
03:05	35.0	35.0	35.0	91	32.6	0	0	---	0.00	30.005 
03:10	35.0	35.0	35.0	92	32.9	0	0	---	0.00	30.005 
03:15	35.0	35.0	35.0	92	32.9	0	0	---	0.00	30.007 
03:20	34.9	34.9	34.9	92	32.8	0	0	---	0.00	30.007 
03:25	34.9	34.9	34.9	92	32.8	0	0	---	0.00	30.007 
03:30	34.9	34.9	34.9	92	32.8	0	0	---	0.00	30.007 
03:35	34.9	34.9	34.9	92	32.8	0	0	---	0.00	30.007 
03:40	34.7	34.7	34.7	92	32.6	0	0	---	0.00	30.007 
03:45	34.6	34.6	34.6	92	32.5	0	0	---	0.00	30.006 
03:50	34.6	34.6	34.6	92	32.5	0	0	---	0.00	30.006 
03:55	34.4	34.4	34.4	92	32.3	0	0	---	0.00	30.006 
04:00	34.3	34.3	34.3	92	32.2	0	0	---	0.00	30.007 
04:05	34.3	34.3	34.3	92	32.2	0	0	---	0.00	30.007 
04:10	34.3	34.3	34.3	92	32.2	0	0	---	0.00	30.007 
04:15	34.3	34.3	34.3	92	32.2	0	0	---	0.00	30.003 
04:20	34.1	34.1	34.1	92	32.0	0	0	---	0.00	30.003 
04:25	34.0	34.0	34.0	92	31.9	0	0	---	0.00	30.003 
04:30	34.0	34.0	34.0	92	31.9	0	0	---	0.00	29.996 
04:35	33.8	33.8	33.8	92	31.7	0	0	---	0.00	29.996 
04:40	33.8	33.8	33.8	92	31.7	0	0	---	0.00	29.996 
04:45	33.7	33.7	33.7	92	31.6	0	0	---	0.00	29.997 
04:50	33.7	33.7	33.7	92	31.6	0	0	---	0.00	29.997 
04:55	33.5	33.5	33.5	92	31.4	0	0	---	0.00	29.997 
05:00	33.5	33.5	33.5	93	31.7	0	0	---	0.00	29.999 
05:05	33.5	33.5	33.5	93	31.7	0	0	---	0.00	29.999 
05:10	33.4	33.4	33.4	93	31.6	0	0	---	0.00	29.999 
05:15	33.4	33.4	33.4	93	31.6	0	0	---	0.00	30.005 
05:20	33.2	33.2	33.2	93	31.4	0	0	---	0.00	30.005 
05:25	33.2	33.2	33.2	93	31.4	0	0	---	0.00	30.005 
05:30	33.2	33.2	33.2	93	31.4	0	0	---	0.00	30.000 
05:35	33.2	33.2	33.2	93	31.4	0	0	---	0.00	30.000 
05:40	33.1	33.1	33.1	93	31.3	0	0	---	0.00	30.000 
05:45	33.1	33.1	33.1	93	31.3	0	0	---	0.00	29.995 
05:50	33.1	33.1	33.1	93	31.3	0	0	---	0.00	29.995 
05:55	32.9	32.9	32.9	93	31.1	0	0	---	0.00	29.995 
06:00	32.9	32.9	32.9	93	31.1	0	0	---	0.00	29.994 
06:05	32.9	32.9	32.9	93	31.1	0	0	---	0.00	29.994 
06:10	33.1	33.1	33.1	93	31.3	0	0	---	0.00	29.994 
06:15	33.1	33.1	33.1	93	31.3	0	0	---	0.00	29.994 
06:20	33.1	33.1	33.1	93	31.3	0	0	---	0.00	29.994 
06:25	33.2	33.2	33.2	93	31.4	0	0	---	0.00	29.994 
06:30	33.4	33.4	33.4	93	31.6	0	0	---	0.00	29.991 
06:35	33.4	33.4	33.4	93	31.6	0	0	---	0.00	29.991 
06:40	33.4	33.4	33.4	93	31.6	0	0	---	0.00	29.991 
06:45	33.5	33.5	33.5	94	32.0	0	0	---	0.00	29.999 
06:50	33.7	33.7	33.7	94	32.2	0	0	---	0.00	29.999 
06:55	33.8	33.8	33.8	94	32.3	0	0	---	0.00	29.999 
07:00	34.3	34.3	34.3	94	32.8	0	0	---	0.00	30.009 
07:05	35.0	35.0	35.0	94	33.5	0	0	---	0.00	30.009 
07:10	35.6	35.6	35.6	94	34.0	0	0	---	0.00	30.009 
07:15	36.2	36.2	36.2	94	34.6	0	1	292	0.00	30.006 
07:20	36.6	36.6	36.6	95	35.3	0	0	---	0.00	30.006 
07:25	37.0	37.0	37.0	94	35.4	0	0	---	0.00	30.006 
07:30	37.2	37.2	37.2	94	35.6	0	1	292	0.00	30.007 
07:35	37.5	37.5	37.5	95	36.2	0	1	292	0.00	30.007 
07:40	37.6	37.6	37.6	94	36.0	0	0	---	0.00	30.007 
07:45	37.8	37.8	37.8	95	36.5	0	0	---	0.00	30.010 
07:50	38.0	38.0	38.0	94	36.4	0	0	---	0.00	30.010 
07:55	38.2	38.2	38.2	95	36.9	0	0	---	0.00	30.010 
08:00	38.2	38.2	38.2	94	36.6	0	1	292	0.00	30.012 
08:05	38.3	38.3	38.3	94	36.7	0	0	---	0.00	30.012 
08:10	38.6	38.6	38.6	94	37.0	0	0	---	0.00	30.012 
08:15	38.6	38.6	38.6	94	37.0	0	1	292	0.00	30.014 
08:20	38.9	38.9	38.9	94	37.3	0	0	---	0.00	30.014 
08:25	39.2	39.2	39.2	94	37.6	0	1	292	0.00	30.014 
08:30	39.3	39.3	39.3	94	37.7	0	0	---	0.00	30.021 
08:35	39.6	39.6	39.6	94	38.0	0	0	---	0.00	30.021 
08:40	39.8	39.8	39.8	93	37.9	0	0	---	0.00	30.021 
08:45	39.9	39.9	39.9	93	38.0	0	2	292	0.00	30.016 
08:50	40.1	40.1	40.1	92	38.0	0	2	---	0.00	30.016 
08:55	40.2	40.2	40.2	92	38.1	0	1	292	0.00	30.016 
09:00	40.3	40.3	40.3	92	38.2	0	1	292	0.00	30.013 
09:05	40.6	40.6	40.6	91	38.2	0	1	292	0.00	30.013 
09:10	41.1	41.1	41.1	91	38.7	0	1	292	0.00	30.013 
09:15	41.5	41.5	41.5	90	38.8	0	1	292	0.00	30.018 
09:20	41.8	41.8	41.8	89	38.8	0	1	292	0.00	30.018 
09:25	42.5	42.5	42.5	88	39.2	0	1	292	0.00	30.018 
09:30	42.9	42.9	42.9	87	39.3	0	2	292	0.00	30.017 
09:35	43.1	43.1	43.1	84	38.6	0	1	292	0.00	30.017 
09:40	43.2	43.2	43.2	82	38.1	0	1	292	0.00	30.017 
09:45	43.3	43.3	43.3	81	37.9	0	0	---	0.00	30.019 
09:50	43.6	43.6	43.6	79	37.5	0	1	292	0.00	30.019 
09:55	44.2	44.2	44.2	79	38.1	0	1	292	0.00	30.019 
10:00	44.5	44.5	44.5	76	37.4	0	1	292	0.00	30.017 
10:05	44.8	44.8	44.8	73	36.7	0	1	292	0.00	30.017 
10:10	44.9	44.9	44.9	70	35.7	0	2	292	0.00	30.017 
10:15	45.4	45.4	45.4	69	35.8	0	1	292	0.00	30.018 
10:20	45.7	45.7	45.7	70	36.5	0	3	292	0.00	30.018 
10:25	46.0	46.0	46.0	70	36.8	0	2	292	0.00	30.018 
10:30	46.1	46.1	46.1	71	37.2	0	1	292	0.00	30.017 
10:35	45.8	45.8	45.8	63	33.9	1	3	292	0.00	30.017 
10:40	45.7	45.7	45.7	64	34.2	0	2	292	0.00	30.017 
10:45	45.8	45.8	45.8	65	34.7	0	1	292	0.00	30.019 
10:50	46.0	46.0	46.0	65	34.9	0	1	292	0.00	30.019 
10:55	46.2	46.2	46.2	68	36.2	0	2	292	0.00	30.019 
11:00	46.4	46.4	46.4	67	36.0	0	1	292	0.00	30.018 
11:05	46.5	46.5	46.5	66	35.8	0	2	292	0.00	30.018 
11:10	46.5	46.5	46.5	64	35.0	0	1	292	0.00	30.018 
11:15	46.5	46.5	46.5	61	33.8	0	2	292	0.00	30.016 
11:20	46.7	46.7	46.7	61	34.0	0	2	292	0.00	30.016 
11:25	46.5	46.5	46.5	61	33.8	0	1	292	0.00	30.016 
11:30	46.7	46.7	46.7	62	34.4	0	3	45	0.00	30.012 
11:35	46.5	46.5	46.5	64	35.0	1	3	45	0.00	30.012 
11:40	46.5	46.5	46.5	62	34.2	0	3	45	0.00	30.012 
11:45	46.7	46.7	46.7	63	34.8	1	3	45	0.00	30.008 
11:50	47.1	47.1	47.1	63	35.2	1	4	45	0.00	30.008 
11:55	47.3	47.3	47.3	63	35.4	0	2	45	0.00	30.008 
12:00	47.6	47.6	47.6	64	36.0	0	0	---	0.00	30.010 
12:05	47.9	47.9	47.9	61	35.1	0	1	45	0.00	30.010 
12:10	48.0	48.0	48.0	61	35.2	0	2	45	0.00	30.010 
12:15	48.2	48.2	48.2	62	35.8	0	3	45	0.00	30.008 
12:20	48.3	48.3	48.3	60	35.1	1	4	45	0.00	30.008 
12:25	48.3	48.3	48.3	59	34.6	0	3	45	0.00	30.008 
12:30	48.3	48.3	48.3	58	34.2	1	4	90	0.00	30.006 
12:35	48.5	48.5	48.5	61	35.7	1	3	90	0.00	30.006 
12:40	48.5	48.5	48.5	59	34.8	0	2	90	0.00	30.006 
12:45	48.5	48.5	48.5	60	35.3	0	1	90	0.00	30.002 
12:50	48.6	48.6	48.6	59	34.9	1	3	90	0.00	30.002 
12:55	48.8	48.8	48.8	61	36.0	1	4	90	0.00	30.002 
13:00	49.1	49.1	49.1	62	36.6	1	3	90	0.00	30.001 
13:05	49.2	49.2	49.2	62	36.7	0	2	90	0.00	30.001 
13:10	49.5	49.5	49.5	62	37.0	1	3	90	0.00	30.001 
13:15	49.6	49.6	49.6	62	37.1	0	3	90	0.00	29.998 
13:20	49.5	49.5	49.5	59	35.8	1	3	90	0.00	29.998 
13:25	49.5	49.5	49.5	61	36.6	0	2	90	0.00	29.998 
13:30	49.6	49.6	49.6	59	35.9	0	2	90	0.00	29.998 
13:35	49.8	49.8	49.8	61	36.9	0	1	90	0.00	29.998 
13:40	49.5	49.5	49.5	60	36.2	0	3	90	0.00	29.998 
13:45	49.5	49.5	49.5	62	37.0	0	1	90	0.00	29.998 
13:50	49.4	49.4	49.4	61	36.5	0	1	90	0.00	29.998 
13:55	49.4	49.4	49.4	61	36.5	0	1	90	0.00	29.998 
14:00	49.4	49.4	49.4	58	35.2	0	1	90	0.00	29.993 
14:05	49.5	49.5	49.5	59	35.8	0	1	90	0.00	29.993 
14:10	49.6	49.6	49.6	61	36.7	0	1	90	0.00	29.993 
14:15	49.8	49.8	49.8	60	36.5	0	1	90	0.00	29.990 
14:20	49.6	49.6	49.6	59	35.9	0	1	90	0.00	29.990 
14:25	49.8	49.8	49.8	60	36.5	1	3	90	0.00	29.990 
14:30	49.6	49.6	49.6	61	36.7	1	4	90	0.00	29.989 
14:35	49.8	49.8	49.8	60	36.5	0	1	90	0.00	29.989 
14:40	49.9	49.9	49.9	59	36.1	0	2	90	0.00	29.989 
14:45	50.2	50.2	50.2	62	37.7	0	0	---	0.00	29.989 
14:50	50.4	50.4	50.4	58	36.2	0	2	90	0.00	29.989 
14:55	50.2	50.2	50.2	59	36.4	0	2	90	0.00	29.989 
15:00	50.1	50.1	50.1	58	35.9	0	1	90	0.00	29.990 
15:05	50.1	50.1	50.1	57	35.5	0	2	90	0.00	29.990 
15:10	50.1	50.1	50.1	58	35.9	0	1	90	0.00	29.990 
15:15	50.2	50.2	50.2	58	36.0	0	1	90	0.00	29.991 
15:20	50.4	50.4	50.4	59	36.6	0	1	90	0.00	29.991 
15:25	50.2	50.2	50.2	57	35.6	0	1	90	0.00	29.991 
15:30	50.2	50.2	50.2	57	35.6	0	1	90	0.00	29.989 
15:35	50.4	50.4	50.4	58	36.2	0	2	90	0.00	29.989 
15:40	50.7	50.7	50.7	57	36.0	0	3	90	0.00	29.989 
15:45	51.0	51.0	51.0	54	34.9	1	3	90	0.00	29.988 
15:50	51.3	51.3	51.3	55	35.7	0	1	90	0.00	29.988 
15:55	51.7	51.7	51.7	53	35.1	0	1	90	0.00	29.988 
16:00	52.2	52.2	52.2	57	37.4	1	3	90	0.00	29.985 
16:05	52.2	52.2	52.2	53	35.6	0	2	90	0.00	29.985 
16:10	51.6	51.6	51.6	53	35.0	1	3	90	0.00	29.985 
16:15	51.6	51.6	51.6	54	35.5	0	1	90	0.00	29.982 
16:20	52.0	52.0	52.0	55	36.3	0	0	---	0.00	29.982 
16:25	52.2	52.2	52.2	51	34.6	0	3	90	0.00	29.982 
16:30	51.7	51.7	51.7	52	34.6	1	3	68	0.00	29.981 
16:35	51.3	51.3	51.3	52	34.3	1	3	68	0.00	29.981 
16:40	51.3	51.3	51.3	56	36.1	0	2	68	0.00	29.981 
16:45	51.6	51.6	51.6	54	35.5	0	1	68	0.00	29.978 
16:50	51.6	51.6	51.6	53	35.0	1	3	68	0.00	29.978 
16:55	51.4	51.4	51.4	53	34.8	1	3	68	0.00	29.978 
17:00	51.4	51.4	51.4	53	34.8	0	2	68	0.00	29.981 
17:05	51.3	51.3	51.3	53	34.8	0	1	68	0.00	29.981 
17:10	51.4	51.4	51.4	55	35.8	0	0	---	0.00	29.981 
17:15	51.4	51.4	51.4	54	35.3	0	0	---	0.00	29.983 
17:20	51.4	51.4	51.4	53	34.8	0	1	68	0.00	29.983 
17:25	51.6	51.6	51.6	54	35.5	0	0	---	0.00	29.983 
17:30	51.6	51.6	51.6	52	34.6	0	1	68	0.00	29.982 
17:35	51.9	51.9	51.9	55	36.2	0	1	68	0.00	29.982 
17:40	51.9	51.9	51.9	54	35.8	0	2	68	0.00	29.982 
17:45	51.7	51.7	51.7	53	35.1	0	1	68	0.00	29.984 
17:50	51.4	51.4	51.4	52	34.4	0	1	68	0.00	29.984 
17:55	51.3	51.3	51.3	54	35.2	0	1	68	0.00	29.984 
18:00	51.1	51.1	51.1	54	35.0	0	1	68	0.00	29.983 
18:05	51.0	51.0	51.0	52	34.0	0	1	68	0.00	29.983 
18:10	51.1	51.1	51.1	55	35.5	0	3	68	0.00	29.983 
18:15	51.3	51.3	51.3	56	36.1	0	3	68	0.00	29.987 
18:20	51.3	51.3	51.3	55	35.7	0	1	68	0.00	29.987 
18:25	51.3	51.3	51.3	55	35.7	0	1	68	0.00	29.987 
18:30	51.3	51.3	51.3	55	35.7	0	1	68	0.00	29.986 
18:35	51.3	51.3	51.3	55	35.7	0	1	68	0.00	29.986 
18:40	51.4	51.4	51.4	59	37.6	1	3	68	0.00	29.986 
18:45	51.3	51.3	51.3	59	37.5	0	1	68	0.00	29.987 
18:50	51.3	51.3	51.3	58	37.0	0	2	68	0.00	29.987 
18:55	51.4	51.4	51.4	59	37.6	0	2	68	0.00	29.987 
19:00	51.6	51.6	51.6	58	37.3	0	2	68	0.00	29.984 
19:05	51.4	51.4	51.4	59	37.6	0	3	68	0.00	29.984 
19:10	51.3	51.3	51.3	59	37.5	1	3	45	0.00	29.984 
19:15	51.1	51.1	51.1	60	37.7	0	1	45	0.00	29.984 
19:20	51.0	51.0	51.0	61	38.0	0	1	45	0.00	29.984 
19:25	50.7	50.7	50.7	61	37.7	1	3	45	0.00	29.984 
19:30	50.4	50.4	50.4	62	37.9	0	2	45	0.00	29.985 
19:35	50.2	50.2	50.2	62	37.7	0	2	45	0.00	29.985 
19:40	50.1	50.1	50.1	62	37.6	0	3	45	0.00	29.985 
19:45	49.9	49.9	49.9	62	37.4	0	1	45	0.00	29.987 
19:50	49.8	49.8	49.8	62	37.3	0	2	22	0.00	29.987 
19:55	49.8	49.8	49.8	62	37.3	0	2	22	0.00	29.987 
20:00	49.6	49.6	49.6	63	37.5	0	1	22	0.00	29.992 
20:05	49.5	49.5	49.5	62	37.0	0	2	22	0.00	29.992 
20:10	49.4	49.4	49.4	62	36.9	0	1	22	0.00	29.992 
20:15	49.4	49.4	49.4	62	36.9	0	1	22	0.00	29.999 
20:20	49.2	49.2	49.2	62	36.7	0	2	22	0.00	29.999 
20:25	49.2	49.2	49.2	63	37.1	0	1	22	0.00	29.999 
20:30	49.2	49.2	49.2	63	37.1	0	1	22	0.00	30.001 
20:35	49.1	49.1	49.1	64	37.5	0	0	---	0.00	30.001 
20:40	49.1	49.1	49.1	64	37.5	0	1	22	0.00	30.001 
20:45	48.9	48.9	48.9	64	37.3	0	1	22	0.00	30.002 
20:50	48.9	48.9	48.9	64	37.3	0	0	---	0.00	30.002 
20:55	48.9	48.9	48.9	65	37.7	0	2	22	0.00	30.002 
21:00	48.8	48.8	48.8	65	37.6	0	2	22	0.00	30.005 
21:05	48.6	48.6	48.6	66	37.8	0	2	22	0.00	30.005 
21:10	48.5	48.5	48.5	67	38.0	0	1	22	0.00	30.005 
21:15	48.3	48.3	48.3	67	37.9	0	2	22	0.00	30.003 
21:20	48.3	48.3	48.3	67	37.9	0	1	22	0.00	30.003 
21:25	48.2	48.2	48.2	67	37.8	0	3	292	0.00	30.003 
21:30	48.2	48.2	48.2	68	38.1	0	2	292	0.00	30.009 
21:35	48.0	48.0	48.0	68	37.9	0	1	292	0.00	30.009 
21:40	48.0	48.0	48.0	69	38.3	0	1	292	0.00	30.009 
21:45	47.7	47.7	47.7	73	39.5	0	2	292	0.00	30.014 
21:50	47.4	47.4	47.4	76	40.2	0	1	292	0.00	30.014 
21:55	47.0	47.0	47.0	77	40.2	0	1	292	0.00	30.014 
22:00	46.7	46.7	46.7	79	40.5	0	1	292	0.00	30.020 
22:05	46.4	46.4	46.4	79	40.2	0	1	292	0.00	30.020 
22:10	46.4	46.4	46.4	80	40.6	0	1	292	0.00	30.020 
22:15	46.2	46.2	46.2	80	40.4	0	1	292	0.00	30.022 
22:20	46.2	46.2	46.2	80	40.4	0	2	292	0.00	30.022 
22:25	46.2	46.2	46.2	79	40.1	0	1	292	0.00	30.022 
22:30	46.2	46.2	46.2	78	39.7	0	1	292	0.00	30.025 
22:35	46.2	46.2	46.2	77	39.4	0	2	292	0.00	30.025 
22:40	46.4	46.4	46.4	77	39.6	0	1	292	0.00	30.025 
22:45	46.4	46.4	46.4	77	39.6	0	1	292	0.00	30.026 
22:50	46.4	46.4	46.4	76	39.3	0	2	292	0.00	30.026 
22:55	46.4	46.4	46.4	76	39.3	0	3	292	0.00	30.026 
23:00	46.4	46.4	46.4	76	39.3	0	2	292	0.00	30.028 
23:05	46.4	46.4	46.4	76	39.3	0	3	292	0.00	30.028 
23:10	46.4	46.4	46.4	76	39.3	0	2	292	0.00	30.028 
23:15	46.4	46.4	46.4	76	39.3	0	2	292	0.00	30.028 
23:20	46.2	46.2	46.2	76	39.1	0	1	292	0.00	30.028 
23:25	46.2	46.2	46.2	76	39.1	0	1	292	0.00	30.028 
23:30	46.2	46.2	46.2	77	39.4	0	1	292	0.00	30.028 
23:35	46.2	46.2	46.2	77	39.4	0	2	292	0.00	30.028 
23:40	46.1	46.1	46.1	78	39.6	0	1	292	0.00	30.028 
23:45	46.0	46.0	46.0	78	39.5	0	1	292	0.00	30.028 
23:50	45.8	45.8	45.8	79	39.7	0	1	292	0.00	30.028 
23:55	45.8	45.8	45.8	79	39.7	0	3	292	0.00	30.028 

CoCoRaHS
IN-AL-39
A2 Web Hosting
Creative Commons License
GoDaddy
search engine by freefind advanced

loaded 2018-11-12 20:20:06 • last modified 2010-11-18 10:43:29
Privacy PolicyDisclaimer
• wx.awcolley.com is powered by PmWiki v.2002016 •
• all content (unless otherwise noted) © 2018 A W Colley